createdAt,value
2023-04-02T00:00:24.397Z,18.18
2023-04-02T00:00:55.550Z,17.86
2023-04-02T00:01:27.311Z,17.46
2023-04-02T00:01:59.329Z,17.06
2023-04-02T00:02:31.958Z,17.06
2023-04-02T00:03:03.475Z,16.73
2023-04-02T00:03:35.525Z,16.73
2023-04-02T00:03:51.869Z,16.41
2023-04-02T00:04:23.341Z,15.53
2023-04-02T00:04:55.324Z,15.53
2023-04-02T00:05:28.370Z,15.53
2023-04-02T00:05:59.405Z,15.53
2023-04-02T00:06:32.306Z,15.53
2023-04-02T00:07:03.565Z,16.25
2023-04-02T00:07:35.500Z,16.25
2023-04-02T00:07:51.799Z,16.25
2023-04-02T00:08:23.309Z,16.41
2023-04-02T00:08:55.414Z,16.57
2023-04-02T00:09:27.424Z,16.90
2023-04-02T00:09:59.388Z,16.90
2023-04-02T00:10:32.437Z,16.90
2023-04-02T00:11:03.324Z,16.90
2023-04-02T00:11:35.587Z,17.22
2023-04-02T00:11:52.263Z,17.46
2023-04-02T00:12:23.383Z,17.70
2023-04-02T00:12:55.395Z,17.70
2023-04-02T00:13:27.383Z,17.70
2023-04-02T00:13:59.473Z,17.70
2023-04-02T00:14:32.440Z,17.70
2023-04-02T00:15:05.648Z,17.70
2023-04-02T00:15:36.420Z,17.70
2023-04-02T00:16:07.274Z,17.70
2023-04-02T00:16:36.179Z,18.42
2023-04-02T00:16:55.694Z,18.42
2023-04-02T00:17:27.424Z,19.15
2023-04-02T00:17:59.758Z,18.42
2023-04-02T00:18:32.056Z,18.42
2023-04-02T00:19:03.407Z,17.70
2023-04-02T00:19:35.773Z,17.30
2023-04-02T00:19:51.854Z,17.30
2023-04-02T00:20:23.635Z,17.30
2023-04-02T00:20:55.290Z,18.42
2023-04-02T00:21:27.488Z,19.15
2023-04-02T00:21:59.339Z,18.02
2023-04-02T00:22:31.912Z,18.02
2023-04-02T00:23:03.327Z,19.88
2023-04-02T00:23:35.821Z,19.88
2023-04-02T00:23:52.265Z,19.88
2023-04-02T00:24:23.232Z,19.88
2023-04-02T00:24:55.244Z,20.76
2023-04-02T00:25:27.827Z,19.88
2023-04-02T00:25:59.625Z,20.36
2023-04-02T00:26:31.897Z,19.63
2023-04-02T00:27:03.403Z,20.36
2023-04-02T00:27:35.430Z,20.36
2023-04-02T00:27:51.899Z,20.76
2023-04-02T00:28:23.391Z,21.08
2023-04-02T00:28:55.472Z,21.08
2023-04-02T00:29:27.268Z,21.24
2023-04-02T00:29:59.470Z,21.24
2023-04-02T00:30:33.056Z,21.24
2023-04-02T00:31:03.275Z,20.92
2023-04-02T00:31:35.459Z,21.08
2023-04-02T00:31:51.815Z,21.08
2023-04-02T00:32:23.164Z,20.92
2023-04-02T00:32:55.316Z,20.92
2023-04-02T00:33:27.399Z,20.92
2023-04-02T00:33:59.456Z,20.92
2023-04-02T00:34:31.998Z,20.92
2023-04-02T00:35:05.008Z,20.52
2023-04-02T00:35:36.088Z,20.52
2023-04-02T00:36:07.239Z,20.92
2023-04-02T00:36:36.909Z,22.37
2023-04-02T00:36:55.667Z,22.37
2023-04-02T00:37:27.423Z,20.92
2023-04-02T00:37:59.596Z,20.52
2023-04-02T00:38:31.865Z,20.11
2023-04-02T00:39:03.232Z,20.11
2023-04-02T00:39:35.899Z,19.95
2023-04-02T00:40:08.108Z,19.47
2023-04-02T00:40:36.186Z,18.91
2023-04-02T00:40:55.715Z,18.34
2023-04-02T00:41:27.313Z,18.02
2023-04-02T00:41:59.397Z,17.86
2023-04-02T00:42:31.978Z,17.86
2023-04-02T00:43:03.441Z,17.86
2023-04-02T00:43:36.022Z,17.30
2023-04-02T00:44:07.270Z,16.89
2023-04-02T00:44:36.404Z,16.89
2023-04-02T00:44:55.286Z,16.89
2023-04-02T00:45:28.212Z,16.57
2023-04-02T00:45:59.814Z,15.29
2023-04-02T00:46:32.065Z,14.32
2023-04-02T00:47:03.293Z,14.32
2023-04-02T00:47:35.511Z,14.32
2023-04-02T00:47:52.101Z,14.32
2023-04-02T00:48:23.308Z,14.56
2023-04-02T00:48:55.345Z,14.56
2023-04-02T00:49:27.395Z,14.56
2023-04-02T00:49:59.487Z,14.80
2023-04-02T00:50:32.323Z,15.13
2023-04-02T00:51:03.633Z,15.13
2023-04-02T00:51:35.533Z,15.13
2023-04-02T00:51:51.986Z,15.13
2023-04-02T00:52:23.374Z,16.34
2023-04-02T00:52:55.398Z,16.34
2023-04-02T00:53:27.372Z,17.62
2023-04-02T00:53:59.615Z,18.18
2023-04-02T00:54:32.142Z,18.74
2023-04-02T00:55:05.014Z,19.47
2023-04-02T00:55:36.043Z,20.20
2023-04-02T00:55:52.698Z,20.20
2023-04-02T00:56:23.406Z,20.20
2023-04-02T00:56:55.402Z,21.08
2023-04-02T00:57:27.347Z,21.08
2023-04-02T00:57:59.357Z,21.08
2023-04-02T00:58:32.259Z,21.08
2023-04-02T00:59:03.323Z,21.72
2023-04-02T00:59:35.526Z,21.72
2023-04-02T00:59:52.715Z,21.56
2023-04-02T01:00:24.335Z,21.88
2023-04-02T01:00:55.500Z,21.88
2023-04-02T01:01:59.268Z,21.88
2023-04-02T01:02:32.284Z,21.88
2023-04-02T01:03:03.422Z,21.56
2023-04-02T01:03:35.942Z,21.56
2023-04-02T01:03:51.866Z,20.35
2023-04-02T01:04:23.272Z,19.47
2023-04-02T01:04:55.603Z,19.47
2023-04-02T01:05:27.869Z,18.91
2023-04-02T01:05:59.307Z,18.74
2023-04-02T01:06:31.893Z,18.34
2023-04-02T01:07:03.234Z,18.74
2023-04-02T01:07:35.476Z,18.74
2023-04-02T01:07:52.059Z,19.31
2023-04-02T01:08:23.549Z,19.47
2023-04-02T01:08:56.089Z,19.47
2023-04-02T01:09:27.315Z,19.47
2023-04-02T01:09:59.481Z,19.31
2023-04-02T01:10:32.577Z,19.31
2023-04-02T01:11:03.266Z,18.74
2023-04-02T01:11:35.547Z,18.34
2023-04-02T01:11:51.858Z,18.74
2023-04-02T01:12:23.262Z,19.31
2023-04-02T01:12:55.129Z,19.47
2023-04-02T01:13:27.290Z,19.47
2023-04-02T01:13:59.931Z,19.47
2023-04-02T01:14:31.880Z,19.47
2023-04-02T01:15:05.275Z,19.47
2023-04-02T01:15:35.608Z,19.47
2023-04-02T01:15:52.443Z,19.47
2023-04-02T01:16:23.346Z,19.63
2023-04-02T01:16:55.239Z,19.63
2023-04-02T01:17:27.340Z,19.63
2023-04-02T01:18:00.184Z,19.63
2023-04-02T01:18:31.763Z,19.47
2023-04-02T01:19:03.338Z,19.63
2023-04-02T01:19:35.569Z,19.47
2023-04-02T01:19:51.812Z,19.47
2023-04-02T01:20:23.610Z,18.74
2023-04-02T01:20:55.223Z,18.74
2023-04-02T01:21:27.277Z,18.74
2023-04-02T01:21:59.478Z,17.86
2023-04-02T01:22:31.896Z,17.46
2023-04-02T01:23:03.727Z,17.22
2023-04-02T01:23:35.720Z,17.22
2023-04-02T01:24:07.287Z,17.22
2023-04-02T01:24:36.099Z,16.90
2023-04-02T01:24:55.197Z,16.41
2023-04-02T01:25:27.665Z,16.25
2023-04-02T01:25:59.308Z,16.25
2023-04-02T01:26:31.933Z,15.85
2023-04-02T01:27:03.214Z,15.45
2023-04-02T01:27:35.559Z,14.56
2023-04-02T01:27:51.812Z,13.67
2023-04-02T01:28:23.400Z,13.51
2023-04-02T01:28:55.216Z,13.35
2023-04-02T01:29:27.435Z,13.35
2023-04-02T01:29:59.302Z,13.19
2023-04-02T01:30:32.851Z,12.79
2023-04-02T01:31:03.220Z,12.39
2023-04-02T01:31:35.569Z,12.39
2023-04-02T01:31:51.888Z,12.79
2023-04-02T01:32:23.223Z,13.03
2023-04-02T01:32:55.486Z,13.19
2023-04-02T01:33:27.482Z,13.03
2023-04-02T01:33:59.408Z,13.03
2023-04-02T01:34:42.740Z,13.19
2023-04-02T01:35:04.939Z,13.35
2023-04-02T01:35:36.470Z,13.51
2023-04-02T01:36:07.366Z,13.51
2023-04-02T01:36:36.127Z,13.51
2023-04-02T01:36:55.333Z,13.84
2023-04-02T01:37:27.410Z,14.56
2023-04-02T01:37:59.458Z,15.12
2023-04-02T01:38:31.972Z,15.45
2023-04-02T01:39:03.175Z,15.77
2023-04-02T01:39:35.330Z,16.01
2023-04-02T01:39:51.774Z,16.25
2023-04-02T01:40:23.619Z,16.41
2023-04-02T01:40:55.409Z,16.57
2023-04-02T01:41:27.391Z,16.73
2023-04-02T01:41:59.630Z,16.89
2023-04-02T01:42:32.074Z,17.06
2023-04-02T01:43:03.353Z,18.19
2023-04-02T01:43:35.886Z,19.15
2023-04-02T01:44:07.224Z,19.31
2023-04-02T01:44:36.023Z,19.63
2023-04-02T01:44:55.325Z,19.63
2023-04-02T01:45:28.350Z,19.63
2023-04-02T01:45:59.563Z,19.63
2023-04-02T01:46:31.927Z,19.79
2023-04-02T01:47:03.290Z,20.36
2023-04-02T01:47:35.936Z,20.36
2023-04-02T01:48:07.562Z,20.36
2023-04-02T01:48:36.478Z,20.36
2023-04-02T01:48:55.558Z,20.36
2023-04-02T01:49:27.837Z,20.76
2023-04-02T01:49:59.548Z,20.76
2023-04-02T01:50:32.825Z,20.76
2023-04-02T01:51:03.189Z,20.20
2023-04-02T01:51:35.325Z,19.63
2023-04-02T01:51:51.879Z,19.31
2023-04-02T01:52:23.169Z,18.91
2023-04-02T01:52:55.493Z,18.66
2023-04-02T01:53:27.348Z,18.50
2023-04-02T01:53:59.493Z,18.50
2023-04-02T01:54:32.010Z,18.50
2023-04-02T01:55:04.426Z,18.50
2023-04-02T01:55:35.804Z,18.50
2023-04-02T01:55:52.296Z,18.18
2023-04-02T01:56:23.327Z,17.86
2023-04-02T01:56:55.482Z,17.30
2023-04-02T01:57:27.538Z,17.86
2023-04-02T01:57:59.478Z,17.46
2023-04-02T01:58:31.938Z,17.46
2023-04-02T01:59:03.232Z,18.18
2023-04-02T01:59:35.603Z,18.18
2023-04-02T01:59:52.031Z,18.18
2023-04-02T02:00:24.372Z,18.18
2023-04-02T02:00:55.809Z,18.18
2023-04-02T02:01:27.317Z,18.50
2023-04-02T02:01:59.642Z,18.34
2023-04-02T02:02:31.898Z,18.34
2023-04-02T02:03:03.404Z,18.34
2023-04-02T02:03:35.462Z,18.66
2023-04-02T02:03:52.069Z,18.34
2023-04-02T02:04:23.748Z,18.34
2023-04-02T02:04:55.292Z,17.62
2023-04-02T02:05:27.970Z,17.22
2023-04-02T02:05:59.575Z,17.22
2023-04-02T02:06:32.067Z,17.22
2023-04-02T02:07:03.340Z,17.22
2023-04-02T02:07:35.451Z,17.22
2023-04-02T02:07:51.794Z,17.94
2023-04-02T02:08:23.617Z,17.94
2023-04-02T02:08:55.329Z,18.19
2023-04-02T02:09:27.366Z,17.22
2023-04-02T02:09:59.486Z,16.74
2023-04-02T02:10:32.367Z,16.74
2023-04-02T02:11:03.280Z,16.74
2023-04-02T02:11:35.365Z,16.57
2023-04-02T02:11:51.945Z,17.06
2023-04-02T02:12:23.480Z,17.22
2023-04-02T02:12:55.463Z,17.22
2023-04-02T02:13:27.550Z,17.06
2023-04-02T02:13:59.542Z,17.06
2023-04-02T02:14:31.877Z,16.89
2023-04-02T02:15:05.778Z,16.89
2023-04-02T02:15:35.784Z,16.89
2023-04-02T02:15:52.310Z,16.89
2023-04-02T02:16:23.556Z,17.06
2023-04-02T02:16:55.408Z,17.62
2023-04-02T02:17:27.808Z,17.62
2023-04-02T02:17:59.720Z,17.62
2023-04-02T02:18:32.400Z,18.02
2023-04-02T02:19:03.276Z,17.86
2023-04-02T02:19:35.501Z,18.02
2023-04-02T02:19:51.870Z,18.02
2023-04-02T02:20:23.540Z,18.02
2023-04-02T02:20:55.357Z,17.86
2023-04-02T02:21:27.509Z,17.86
2023-04-02T02:21:59.539Z,17.86
2023-04-02T02:22:32.013Z,17.30
2023-04-02T02:23:03.337Z,17.30
2023-04-02T02:23:35.392Z,17.30
2023-04-02T02:23:51.965Z,17.30
2023-04-02T02:24:23.451Z,17.86
2023-04-02T02:24:55.497Z,18.18
2023-04-02T02:25:27.916Z,18.50
2023-04-02T02:25:59.526Z,19.06
2023-04-02T02:26:32.279Z,19.06
2023-04-02T02:27:03.384Z,18.50
2023-04-02T02:27:36.053Z,18.50
2023-04-02T02:28:07.710Z,18.50
2023-04-02T02:28:36.143Z,18.50
2023-04-02T02:28:55.566Z,19.23
2023-04-02T02:29:27.819Z,19.47
2023-04-02T02:30:01.950Z,20.20
2023-04-02T02:30:32.588Z,19.47
2023-04-02T02:31:03.338Z,19.47
2023-04-02T02:31:36.451Z,19.95
2023-04-02T02:32:07.819Z,20.36
2023-04-02T02:32:36.294Z,20.36
2023-04-02T02:32:55.416Z,20.60
2023-04-02T02:33:27.459Z,20.60
2023-04-02T02:33:59.715Z,20.36
2023-04-02T02:34:31.842Z,20.11
2023-04-02T02:35:04.795Z,20.11
2023-04-02T02:35:36.337Z,20.11
2023-04-02T02:35:52.479Z,20.11
2023-04-02T02:36:23.263Z,20.11
2023-04-02T02:36:55.368Z,20.11
2023-04-02T02:37:27.300Z,19.63
2023-04-02T02:37:59.357Z,19.15
2023-04-02T02:38:32.078Z,18.59
2023-04-02T02:39:03.286Z,17.62
2023-04-02T02:39:35.320Z,17.22
2023-04-02T02:39:51.919Z,17.22
2023-04-02T02:40:23.826Z,17.22
2023-04-02T02:40:55.381Z,17.62
2023-04-02T02:41:27.693Z,17.62
2023-04-02T02:41:59.368Z,17.22
2023-04-02T02:42:32.490Z,16.74
2023-04-02T02:43:03.308Z,16.57
2023-04-02T02:43:35.502Z,16.57
2023-04-02T02:43:51.985Z,17.06
2023-04-02T02:44:23.532Z,17.22
2023-04-02T02:44:55.386Z,17.06
2023-04-02T02:45:28.336Z,17.06
2023-04-02T02:45:59.562Z,17.22
2023-04-02T02:46:31.980Z,17.22
2023-04-02T02:47:03.375Z,17.62
2023-04-02T02:47:35.529Z,18.34
2023-04-02T02:47:51.909Z,18.66
2023-04-02T02:48:23.332Z,18.91
2023-04-02T02:48:55.329Z,19.31
2023-04-02T02:49:27.817Z,19.47
2023-04-02T02:49:59.584Z,19.63
2023-04-02T02:50:32.467Z,19.79
2023-04-02T02:51:03.304Z,19.63
2023-04-02T02:51:35.477Z,19.63
2023-04-02T02:51:51.959Z,19.63
2023-04-02T02:52:23.470Z,19.79
2023-04-02T02:52:55.740Z,20.36
2023-04-02T02:53:27.711Z,20.36
2023-04-02T02:53:59.549Z,19.79
2023-04-02T02:54:32.045Z,20.36
2023-04-02T02:55:04.909Z,21.08
2023-04-02T02:55:35.551Z,20.36
2023-04-02T02:55:52.461Z,19.79
2023-04-02T02:56:23.361Z,19.63
2023-04-02T02:56:55.381Z,19.79
2023-04-02T02:57:27.517Z,19.79
2023-04-02T02:57:59.475Z,20.20
2023-04-02T02:58:32.058Z,20.76
2023-04-02T02:59:03.494Z,20.76
2023-04-02T02:59:36.127Z,20.20
2023-04-02T03:00:08.613Z,20.20
2023-04-02T03:00:36.092Z,20.20
2023-04-02T03:00:55.770Z,20.20
2023-04-02T03:01:27.413Z,20.20
2023-04-02T03:01:59.496Z,20.20
2023-04-02T03:02:32.118Z,19.63
2023-04-02T03:03:03.469Z,19.47
2023-04-02T03:03:35.592Z,19.63
2023-04-02T03:03:52.064Z,20.20
2023-04-02T03:04:23.529Z,19.63
2023-04-02T03:04:55.430Z,19.31
2023-04-02T03:05:27.818Z,19.31
2023-04-02T03:05:59.473Z,18.74
2023-04-02T03:06:31.985Z,18.74
2023-04-02T03:07:03.331Z,18.02
2023-04-02T03:07:35.666Z,18.02
2023-04-02T03:07:52.125Z,18.02
2023-04-02T03:08:23.260Z,18.02
2023-04-02T03:08:55.478Z,18.02
2023-04-02T03:09:27.493Z,18.02
2023-04-02T03:09:59.364Z,18.02
2023-04-02T03:10:32.351Z,18.02
2023-04-02T03:11:03.330Z,18.34
2023-04-02T03:11:35.458Z,18.34
2023-04-02T03:11:52.540Z,19.47
2023-04-02T03:12:23.348Z,19.47
2023-04-02T03:12:55.347Z,19.47
2023-04-02T03:13:27.295Z,18.34
2023-04-02T03:13:59.713Z,18.34
2023-04-02T03:14:31.977Z,18.34
2023-04-02T03:15:05.682Z,18.34
2023-04-02T03:15:36.078Z,18.34
2023-04-02T03:16:07.506Z,18.34
2023-04-02T03:16:36.176Z,18.34
2023-04-02T03:16:55.582Z,18.34
2023-04-02T03:17:27.413Z,18.34
2023-04-02T03:17:59.503Z,18.18
2023-04-02T03:18:31.908Z,17.86
2023-04-02T03:19:03.293Z,16.25
2023-04-02T03:19:35.422Z,14.80
2023-04-02T03:19:51.994Z,14.56
2023-04-02T03:20:23.839Z,14.16
2023-04-02T03:20:55.797Z,14.16
2023-04-02T03:21:27.266Z,13.84
2023-04-02T03:21:59.423Z,13.84
2023-04-02T03:22:31.933Z,13.84
2023-04-02T03:23:03.350Z,13.84
2023-04-02T03:23:35.462Z,13.67
2023-04-02T03:23:52.067Z,13.67
2023-04-02T03:24:23.825Z,13.67
2023-04-02T03:24:55.450Z,13.67
2023-04-02T03:25:28.099Z,13.51
2023-04-02T03:26:00.055Z,13.51
2023-04-02T03:26:32.033Z,13.51
2023-04-02T03:27:03.403Z,13.51
2023-04-02T03:27:35.455Z,13.35
2023-04-02T03:27:52.166Z,13.51
2023-04-02T03:28:23.570Z,13.51
2023-04-02T03:28:55.516Z,13.67
2023-04-02T03:29:27.613Z,13.67
2023-04-02T03:30:01.602Z,14.00
2023-04-02T03:30:33.797Z,14.56
2023-04-02T03:31:03.482Z,14.32
2023-04-02T03:31:35.588Z,14.56
2023-04-02T03:31:52.022Z,14.56
2023-04-02T03:32:23.365Z,15.05
2023-04-02T03:32:55.487Z,15.05
2023-04-02T03:33:27.632Z,15.05
2023-04-02T03:33:59.556Z,16.01
2023-04-02T03:34:32.468Z,16.41
2023-04-02T03:35:05.569Z,16.41
2023-04-02T03:35:35.673Z,16.41
2023-04-02T03:35:52.506Z,16.01
2023-04-02T03:36:23.738Z,16.41
2023-04-02T03:36:55.447Z,16.57
2023-04-02T03:37:27.481Z,16.57
2023-04-02T03:37:59.505Z,16.57
2023-04-02T03:38:32.053Z,16.57
2023-04-02T03:39:03.280Z,16.57
2023-04-02T03:39:35.439Z,16.57
2023-04-02T03:39:51.985Z,16.41
2023-04-02T03:40:23.886Z,15.68
2023-04-02T03:40:55.483Z,15.68
2023-04-02T03:41:27.512Z,15.12
2023-04-02T03:41:59.594Z,14.96
2023-04-02T03:42:32.098Z,14.96
2023-04-02T03:43:03.421Z,14.96
2023-04-02T03:43:35.449Z,15.12
2023-04-02T03:43:51.996Z,15.12
2023-04-02T03:44:23.280Z,15.12
2023-04-02T03:44:55.793Z,15.45
2023-04-02T03:45:28.404Z,16.17
2023-04-02T03:45:59.830Z,16.73
2023-04-02T03:46:32.137Z,16.73
2023-04-02T03:47:03.435Z,16.33
2023-04-02T03:47:35.535Z,15.45
2023-04-02T03:47:52.041Z,15.45
2023-04-02T03:48:23.408Z,15.45
2023-04-02T03:48:55.673Z,15.45
2023-04-02T03:49:27.527Z,15.45
2023-04-02T03:49:59.569Z,16.01
2023-04-02T03:50:32.519Z,16.25
2023-04-02T03:51:03.327Z,17.13
2023-04-02T03:51:35.485Z,18.02
2023-04-02T03:51:52.026Z,18.02
2023-04-02T03:52:23.506Z,17.13
2023-04-02T03:52:55.561Z,17.13
2023-04-02T03:53:27.676Z,16.25
2023-04-02T03:53:59.576Z,16.25
2023-04-02T03:54:32.164Z,16.25
2023-04-02T03:55:04.836Z,17.13
2023-04-02T03:55:35.619Z,16.25
2023-04-02T03:55:52.412Z,16.25
2023-04-02T03:56:23.361Z,16.25
2023-04-02T03:56:55.515Z,16.25
2023-04-02T03:57:27.639Z,16.25
2023-04-02T03:57:59.351Z,16.25
2023-04-02T03:58:31.972Z,16.25
2023-04-02T03:59:03.261Z,16.25
2023-04-02T03:59:35.771Z,16.57
2023-04-02T04:00:08.617Z,16.57
2023-04-02T04:00:36.205Z,17.30
2023-04-02T04:00:56.034Z,16.57
2023-04-02T04:01:27.349Z,16.25
2023-04-02T04:01:59.526Z,16.41
2023-04-02T04:02:32.030Z,16.41
2023-04-02T04:03:03.418Z,15.85
2023-04-02T04:03:35.533Z,15.85
2023-04-02T04:03:52.061Z,15.85
2023-04-02T04:04:23.598Z,15.85
2023-04-02T04:04:55.466Z,15.85
2023-04-02T04:05:27.953Z,15.85
2023-04-02T04:05:59.538Z,15.85
2023-04-02T04:06:32.087Z,16.41
2023-04-02T04:07:03.385Z,16.90
2023-04-02T04:07:35.502Z,17.46
2023-04-02T04:07:52.066Z,17.46
2023-04-02T04:08:23.358Z,18.18
2023-04-02T04:08:55.490Z,18.66
2023-04-02T04:09:27.536Z,18.66
2023-04-02T04:09:59.520Z,19.23
2023-04-02T04:10:32.412Z,19.63
2023-04-02T04:11:03.499Z,19.63
2023-04-02T04:11:36.371Z,19.63
2023-04-02T04:12:07.731Z,20.20
2023-04-02T04:12:36.154Z,20.20
2023-04-02T04:12:55.495Z,20.60
2023-04-02T04:13:27.490Z,20.60
2023-04-02T04:13:59.575Z,20.60
2023-04-02T04:14:32.055Z,20.20
2023-04-02T04:15:05.607Z,20.20
2023-04-02T04:15:35.602Z,20.20
2023-04-02T04:15:52.389Z,19.63
2023-04-02T04:16:23.662Z,19.47
2023-04-02T04:16:55.745Z,19.47
2023-04-02T04:17:27.446Z,19.06
2023-04-02T04:17:59.558Z,18.18
2023-04-02T04:18:31.914Z,18.18
2023-04-02T04:19:03.392Z,18.18
2023-04-02T04:19:35.409Z,18.18
2023-04-02T04:19:51.868Z,18.18
2023-04-02T04:20:24.330Z,17.30
2023-04-02T04:20:55.475Z,16.33
2023-04-02T04:21:27.459Z,17.06
2023-04-02T04:21:59.484Z,17.06
2023-04-02T04:22:31.904Z,17.46
2023-04-02T04:23:03.385Z,17.06
2023-04-02T04:23:35.389Z,16.57
2023-04-02T04:23:51.895Z,16.57
2023-04-02T04:24:23.290Z,17.06
2023-04-02T04:24:55.405Z,17.46
2023-04-02T04:25:28.159Z,17.94
2023-04-02T04:25:59.585Z,17.94
2023-04-02T04:26:32.221Z,19.23
2023-04-02T04:27:03.531Z,20.36
2023-04-02T04:27:35.413Z,20.92
2023-04-02T04:27:52.009Z,21.08
2023-04-02T04:28:23.210Z,21.08
2023-04-02T04:28:55.471Z,21.08
2023-04-02T04:29:27.747Z,20.92
2023-04-02T04:29:59.426Z,20.92
2023-04-02T04:30:32.705Z,20.92
2023-04-02T04:31:04.512Z,20.92
2023-04-02T04:31:35.430Z,20.92
2023-04-02T04:31:51.992Z,20.92
2023-04-02T04:32:23.265Z,20.92
2023-04-02T04:32:55.537Z,21.08
2023-04-02T04:33:27.489Z,21.08
2023-04-02T04:33:59.641Z,21.08
2023-04-02T04:34:31.995Z,21.08
2023-04-02T04:35:04.817Z,20.92
2023-04-02T04:35:35.623Z,20.76
2023-04-02T04:35:52.416Z,20.60
2023-04-02T04:36:23.365Z,20.20
2023-04-02T04:36:55.796Z,20.20
2023-04-02T04:37:27.433Z,19.63
2023-04-02T04:37:59.580Z,19.47
2023-04-02T04:38:32.384Z,19.31
2023-04-02T04:39:03.325Z,18.91
2023-04-02T04:39:36.000Z,18.66
2023-04-02T04:40:08.252Z,18.66
2023-04-02T04:40:36.136Z,18.18
2023-04-02T04:40:55.922Z,18.18
2023-04-02T04:41:27.556Z,18.18
2023-04-02T04:41:59.526Z,18.18
2023-04-02T04:42:32.484Z,18.66
2023-04-02T04:43:03.423Z,18.66
2023-04-02T04:43:35.622Z,18.66
2023-04-02T04:43:52.029Z,18.66
2023-04-02T04:44:23.324Z,18.66
2023-04-02T04:44:55.505Z,18.91
2023-04-02T04:45:28.718Z,19.15
2023-04-02T04:45:59.977Z,19.63
2023-04-02T04:46:32.119Z,19.63
2023-04-02T04:47:03.621Z,19.63
2023-04-02T04:47:36.057Z,20.36
2023-04-02T04:47:51.978Z,21.24
2023-04-02T04:48:23.269Z,21.56
2023-04-02T04:48:55.462Z,21.72
2023-04-02T04:49:27.403Z,21.72
2023-04-02T04:49:59.510Z,21.72
2023-04-02T04:50:32.434Z,21.72
2023-04-02T04:51:03.467Z,21.72
2023-04-02T04:51:35.403Z,21.88
2023-04-02T04:51:51.976Z,21.72
2023-04-02T04:52:23.304Z,21.88
2023-04-02T04:52:55.536Z,21.72
2023-04-02T04:53:27.627Z,21.72
2023-04-02T04:53:59.612Z,21.72
2023-04-02T04:54:31.986Z,21.72
2023-04-02T04:55:05.135Z,21.72
2023-04-02T04:55:35.771Z,21.56
2023-04-02T04:55:52.303Z,21.40
2023-04-02T04:56:24.042Z,21.40
2023-04-02T04:56:55.562Z,21.24
2023-04-02T04:57:27.632Z,20.92
2023-04-02T04:58:00.174Z,20.20
2023-04-02T04:58:32.029Z,19.63
2023-04-02T04:59:03.614Z,19.47
2023-04-02T04:59:35.518Z,19.63
2023-04-02T04:59:52.145Z,19.63
2023-04-02T05:00:24.403Z,19.95
2023-04-02T05:00:55.834Z,20.36
2023-04-02T05:01:27.662Z,19.95
2023-04-02T05:01:59.511Z,19.63
2023-04-02T05:02:32.058Z,19.47
2023-04-02T05:03:03.794Z,19.06
2023-04-02T05:03:35.386Z,18.34
2023-04-02T05:03:52.228Z,17.62
2023-04-02T05:04:23.685Z,17.06
2023-04-02T05:04:55.882Z,16.73
2023-04-02T05:05:28.137Z,16.01
2023-04-02T05:05:59.768Z,16.73
2023-04-02T05:06:32.237Z,16.01
2023-04-02T05:07:03.502Z,15.13
2023-04-02T05:07:35.699Z,15.13
2023-04-02T05:07:52.124Z,15.13
2023-04-02T05:08:23.538Z,15.13
2023-04-02T05:08:55.689Z,15.13
2023-04-02T05:09:27.657Z,15.13
2023-04-02T05:09:59.835Z,15.13
2023-04-02T05:10:32.533Z,15.13
2023-04-02T05:11:03.801Z,15.13
2023-04-02T05:11:35.606Z,15.61
2023-04-02T05:11:52.146Z,16.01
2023-04-02T05:12:23.768Z,16.01
2023-04-02T05:12:55.737Z,16.25
2023-04-02T05:13:27.712Z,16.25
2023-04-02T05:13:59.936Z,16.98
2023-04-02T05:14:32.258Z,18.02
2023-04-02T05:15:05.786Z,18.02
2023-04-02T05:15:36.178Z,18.50
2023-04-02T05:15:52.844Z,18.66
2023-04-02T05:16:23.598Z,18.91
2023-04-02T05:16:55.816Z,19.47
2023-04-02T05:17:27.712Z,19.79
2023-04-02T05:17:59.791Z,20.36
2023-04-02T05:18:32.690Z,20.36
2023-04-02T05:19:03.652Z,20.36
2023-04-02T05:19:35.703Z,21.08
2023-04-02T05:19:52.467Z,21.08
2023-04-02T05:20:24.003Z,20.36
2023-04-02T05:20:55.857Z,19.79
2023-04-02T05:21:27.830Z,19.79
2023-04-02T05:22:00.032Z,19.79
2023-04-02T05:22:32.267Z,19.47
2023-04-02T05:23:03.777Z,19.47
2023-04-02T05:23:35.696Z,19.47
2023-04-02T05:23:52.721Z,19.15
2023-04-02T05:24:23.800Z,19.15
2023-04-02T05:24:55.755Z,19.15
2023-04-02T05:25:28.037Z,18.74
2023-04-02T05:25:59.885Z,17.62
2023-04-02T05:26:32.317Z,16.57
2023-04-02T05:27:03.718Z,15.85
2023-04-02T05:27:35.791Z,15.29
2023-04-02T05:27:52.328Z,15.12
2023-04-02T05:28:23.587Z,14.96
2023-04-02T05:28:56.559Z,14.80
2023-04-02T05:29:27.957Z,14.80
2023-04-02T05:29:59.733Z,14.80
2023-04-02T05:30:33.198Z,14.56
2023-04-02T05:31:03.621Z,14.56
2023-04-02T05:31:36.799Z,14.56
2023-04-02T05:31:52.565Z,14.96
2023-04-02T05:32:23.680Z,14.96
2023-04-02T05:32:56.456Z,14.96
2023-04-02T05:33:27.671Z,14.56
2023-04-02T05:34:00.008Z,14.96
2023-04-02T05:34:32.290Z,14.96
2023-04-02T05:35:05.240Z,14.72
2023-04-02T05:35:36.051Z,15.12
2023-04-02T05:35:52.622Z,15.12
2023-04-02T05:36:23.762Z,15.12
2023-04-02T05:36:55.786Z,15.12
2023-04-02T05:37:27.897Z,15.45
2023-04-02T05:38:00.216Z,16.17
2023-04-02T05:38:32.183Z,16.57
2023-04-02T05:39:03.666Z,16.57
2023-04-02T05:39:35.704Z,17.13
2023-04-02T05:39:52.122Z,17.13
2023-04-02T05:40:24.000Z,17.13
2023-04-02T05:40:55.841Z,17.13
2023-04-02T05:41:27.786Z,17.13
2023-04-02T05:42:01.166Z,17.13
2023-04-02T05:42:32.268Z,17.13
2023-04-02T05:43:03.922Z,17.13
2023-04-02T05:43:35.850Z,17.13
2023-04-02T05:43:52.326Z,17.13
2023-04-02T05:44:23.714Z,17.46
2023-04-02T05:44:55.951Z,17.46
2023-04-02T05:45:28.682Z,17.46
2023-04-02T05:46:00.301Z,17.46
2023-04-02T05:46:32.325Z,17.46
2023-04-02T05:47:04.469Z,17.06
2023-04-02T05:47:35.903Z,16.57
2023-04-02T05:47:52.345Z,16.57
2023-04-02T05:48:23.742Z,16.57
2023-04-02T05:48:55.935Z,17.06
2023-04-02T05:49:28.322Z,17.06
2023-04-02T05:50:00.007Z,17.06
2023-04-02T05:50:33.134Z,17.78
2023-04-02T05:51:03.881Z,17.78
2023-04-02T05:51:36.555Z,17.06
2023-04-02T05:51:52.296Z,16.57
2023-04-02T05:52:24.243Z,16.57
2023-04-02T05:52:55.907Z,17.06
2023-04-02T05:53:27.978Z,17.78
2023-04-02T05:53:59.912Z,18.34
2023-04-02T05:54:32.371Z,18.34
2023-04-02T05:55:05.329Z,18.34
2023-04-02T05:55:36.463Z,18.34
2023-04-02T05:56:07.921Z,18.34
2023-04-02T05:56:36.454Z,17.62
2023-04-02T05:56:56.239Z,18.34
2023-04-02T05:57:42.819Z,18.34
2023-04-02T05:58:17.704Z,17.62
2023-04-02T05:58:36.169Z,16.73
2023-04-02T05:59:03.814Z,16.57
2023-04-02T05:59:35.920Z,16.41
2023-04-02T05:59:52.374Z,15.85
2023-04-02T06:00:24.855Z,14.73
2023-04-02T06:00:55.776Z,14.40
2023-04-02T06:01:27.654Z,14.96
2023-04-02T06:01:59.992Z,15.29
2023-04-02T06:02:32.333Z,15.85
2023-04-02T06:03:03.790Z,15.85
2023-04-02T06:03:35.853Z,15.85
2023-04-02T06:03:52.373Z,15.85
2023-04-02T06:04:23.888Z,16.25
2023-04-02T06:04:56.149Z,16.25
2023-04-02T06:05:28.197Z,16.41
2023-04-02T06:05:59.920Z,16.41
2023-04-02T06:06:32.221Z,16.57
2023-04-02T06:07:03.794Z,16.57
2023-04-02T06:07:35.972Z,16.73
2023-04-02T06:07:52.394Z,17.78
2023-04-02T06:08:23.655Z,18.91
2023-04-02T06:08:55.878Z,19.47
2023-04-02T06:09:29.084Z,19.47
2023-04-02T06:10:00.017Z,19.79
2023-04-02T06:10:32.851Z,19.79
2023-04-02T06:11:03.701Z,20.67
2023-04-02T06:11:35.808Z,21.72
2023-04-02T06:11:52.500Z,21.72
2023-04-02T06:12:23.824Z,21.72
2023-04-02T06:12:56.139Z,20.67
2023-04-02T06:13:27.971Z,20.67
2023-04-02T06:14:00.100Z,19.79
2023-04-02T06:14:32.403Z,19.79
2023-04-02T06:15:06.711Z,19.79
2023-04-02T06:15:36.182Z,19.79
2023-04-02T06:15:52.826Z,19.79
2023-04-02T06:16:23.710Z,19.79
2023-04-02T06:16:55.919Z,19.79
2023-04-02T06:17:27.716Z,19.79
2023-04-02T06:18:00.059Z,19.79
2023-04-02T06:18:32.323Z,19.79
2023-04-02T06:19:03.780Z,19.47
2023-04-02T06:19:35.871Z,19.47
2023-04-02T06:19:52.721Z,18.91
2023-04-02T06:20:25.030Z,18.66
2023-04-02T06:20:56.374Z,18.34
2023-04-02T06:21:29.117Z,17.62
2023-04-02T06:21:59.903Z,17.62
2023-04-02T06:22:32.190Z,17.62
2023-04-02T06:23:03.741Z,17.22
2023-04-02T06:23:35.762Z,17.22
2023-04-02T06:23:52.244Z,17.22
2023-04-02T06:24:24.073Z,17.22
2023-04-02T06:24:55.748Z,17.22
2023-04-02T06:25:28.197Z,17.22
2023-04-02T06:25:59.818Z,17.22
2023-04-02T06:26:32.245Z,17.22
2023-04-02T06:27:03.695Z,17.22